Time;durP1;ratioP1;P1;durP2;ratioP2;P2;SDS_P1;SDS_P2;PMS_P1;PMS_P2;Temp;Humidity;BMP_temperature;BMP_pressure;BME280_temperature;BME280_humidity;BME280_pressure;Samples;Min_cycle;Max_cycle;Signal;HPM_P1;HPM_P2
2023/05/01 00:01:16;;;;;;;41.90;39.80;;;;;;;21.54;45.03;101635.19;4994424;28;20042;-67
2023/05/01 00:03:42;;;;;;;43.22;40.88;;;;;;;21.52;45.11;101640.16;4994605;28;20034;-71
2023/05/01 00:06:07;;;;;;;43.42;41.08;;;;;;;21.49;45.50;101630.56;4994667;28;20495;-66
2023/05/01 00:08:33;;;;;;;42.10;40.00;;;;;;;21.48;45.28;101623.47;4994311;28;20030;-69
2023/05/01 00:11:03;;;;;;;42.97;40.40;;;;;;;21.45;45.37;101617.75;4994289;28;20467;-71
2023/05/01 00:13:29;;;;;;;42.15;40.05;;;;;;;21.43;45.42;101623.53;4994465;28;20030;-72
2023/05/01 00:15:54;;;;;;;43.63;41.53;;;;;;;21.41;45.36;101614.75;4994805;28;20058;-71
2023/05/01 00:18:20;;;;;;;43.20;41.00;;;;;;;21.38;45.39;101616.16;4993897;28;20035;-69
2023/05/01 00:20:45;;;;;;;43.53;41.13;;;;;;;21.36;45.47;101614.78;4976788;28;20070;-68
2023/05/01 00:23:11;;;;;;;44.55;41.70;;;;;;;21.35;45.38;101607.66;4976774;28;20051;-67
2023/05/01 00:25:37;;;;;;;44.85;42.45;;;;;;;21.32;45.15;101603.56;4993798;28;20221;-67
2023/05/01 00:28:03;;;;;;;45.15;42.95;;;;;;;21.31;45.11;101606.59;4993869;28;20069;-72
2023/05/01 00:30:28;;;;;;;42.97;40.70;;;;;;;21.29;45.28;101600.59;4976324;28;20062;-67
2023/05/01 00:32:54;;;;;;;42.90;40.78;;;;;;;21.27;45.06;101600.03;4993736;28;20034;-72
2023/05/01 00:35:19;;;;;;;42.80;40.70;;;;;;;21.24;45.53;101600.66;4994025;28;20443;-68
2023/05/01 00:37:44;;;;;;;44.38;42.17;;;;;;;21.23;45.38;101591.59;4977033;28;20038;-71
2023/05/01 00:40:10;;;;;;;41.60;39.60;;;;;;;21.21;45.09;101590.25;4993986;28;20414;-70
2023/05/01 00:42:38;;;;;;;43.17;40.97;;;;;;;21.18;44.85;101584.22;4994242;28;20117;-71
2023/05/01 00:45:07;;;;;;;42.83;40.63;;;;;;;21.16;44.84;101578.19;4994729;28;20041;-69
2023/05/01 00:47:36;;;;;;;40.95;38.95;;;;;;;21.14;45.27;101580.44;4993890;28;20030;-69
2023/05/01 00:50:04;;;;;;;43.38;41.08;;;;;;;21.12;44.99;101574.41;4994419;28;20074;-72
2023/05/01 00:52:29;;;;;;;40.78;38.67;;;;;;;21.10;45.12;101568.41;4994118;28;20149;-68
2023/05/01 00:54:55;;;;;;;40.25;38.25;;;;;;;21.09;44.89;101568.69;4976902;28;20087;-67
2023/05/01 00:57:21;;;;;;;40.97;38.95;;;;;;;21.08;45.35;101564.31;4976298;28;20537;-69
2023/05/01 00:59:47;;;;;;;40.53;38.38;;;;;;;21.04;45.44;101564.09;4993764;28;20034;-67
2023/05/01 01:02:13;;;;;;;40.28;38.28;;;;;;;21.02;45.26;101562.75;4993805;28;20080;-69
2023/05/01 01:04:41;;;;;;;41.97;39.85;;;;;;;21.00;45.42;101557.53;4993928;28;20034;-69
2023/05/01 01:07:14;;;;;;;41.40;39.40;;;;;;;20.99;45.52;101560.56;4993863;28;20034;-72
2023/05/01 01:10:01;;;;;;;41.80;39.72;;;;;;;20.95;45.06;101554.84;4993767;28;20041;-71
2023/05/01 01:12:48;;;;;;;41.13;39.13;;;;;;;20.90;45.18;101547.47;4994120;28;20042;-71
2023/05/01 01:15:39;;;;;;;41.00;38.97;;;;;;;20.87;45.56;101541.78;4993536;28;20533;-69
2023/05/01 01:18:11;;;;;;;41.58;39.58;;;;;;;20.86;44.97;101535.44;4989723;28;20476;-72
2023/05/01 01:20:40;;;;;;;40.35;38.35;;;;;;;20.85;45.44;101535.75;4976842;28;20383;-68
2023/05/01 01:23:24;;;;;;;;;;;;;;;20.81;45.05;101537.44;4994366;28;20045;-72
2023/05/01 01:26:11;;;;;;;40.40;38.30;;;;;;;20.77;45.44;101531.72;4993608;28;20346;-71
2023/05/01 01:29:04;;;;;;;38.10;36.20;;;;;;;20.73;45.27;101525.97;4993710;28;20126;-70
2023/05/01 01:31:49;;;;;;;39.88;37.97;;;;;;;20.72;45.37;101529.03;4993224;28;20073;-71
2023/05/01 01:34:15;;;;;;;41.17;39.17;;;;;;;20.70;45.18;101520.28;4993954;28;20034;-71
2023/05/01 01:37:01;;;;;;;39.63;37.67;;;;;;;20.68;45.45;101517.00;4993701;28;20084;-69
2023/05/01 01:39:36;;;;;;;39.10;37.20;;;;;;;20.66;45.00;101508.22;4993748;28;20041;-68
2023/05/01 01:42:08;;;;;;;40.70;38.70;;;;;;;20.66;45.01;101506.31;4993716;28;20081;-70
2023/05/01 01:44:39;;;;;;;40.92;38.72;;;;;;;20.65;45.33;101501.91;4996982;28;20053;-72
2023/05/01 01:47:07;;;;;;;38.78;36.90;;;;;;;20.64;45.40;101494.81;4997517;28;20048;-69
2023/05/01 01:49:36;;;;;;;38.75;36.80;;;;;;;20.62;45.21;101496.22;4997681;28;20339;-68
2023/05/01 01:52:05;;;;;;;39.38;37.42;;;;;;;20.61;45.06;101498.13;4996734;28;20038;-70
2023/05/01 01:54:36;;;;;;;39.15;37.20;;;;;;;20.60;45.44;101493.75;4997119;28;20085;-71
2023/05/01 01:57:04;;;;;;;40.58;38.58;;;;;;;20.58;45.45;101487.72;4996480;28;20084;-70
2023/05/01 01:59:33;;;;;;;38.70;36.80;;;;;;;20.56;45.43;101487.19;4997046;28;20034;-72
2023/05/01 02:02:00;;;;;;;;;;;;;;;20.54;45.43;101486.66;4997321;28;20123;-72
2023/05/01 02:04:27;;;;;;;39.60;37.50;;;;;;;20.50;45.54;101483.66;4979528;28;20239;-70
2023/05/01 02:06:55;;;;;;;39.60;37.60;;;;;;;20.50;45.41;101480.09;4996464;28;20042;-72
2023/05/01 02:09:22;;;;;;;39.67;37.30;;;;;;;20.48;45.43;101476.84;4996480;28;20110;-71
2023/05/01 02:11:50;;;;;;;42.17;39.72;;;;;;;20.45;45.08;101472.75;4996248;28;20430;-67
2023/05/01 02:14:17;;;;;;;39.92;37.92;;;;;;;20.44;45.18;101479.34;4996395;28;20049;-71
2023/05/01 02:16:43;;;;;;;39.63;37.53;;;;;;;20.42;45.35;101470.59;4996361;28;20042;-69
2023/05/01 02:19:10;;;;;;;38.65;36.75;;;;;;;20.41;45.46;101468.97;4996638;28;20044;-69
2023/05/01 02:21:37;;;;;;;40.15;38.15;;;;;;;20.40;44.98;101464.56;4996287;28;20049;-69
2023/05/01 02:24:05;;;;;;;41.17;38.90;;;;;;;20.39;45.44;101462.94;4996154;28;20041;-69
2023/05/01 02:26:37;;;;;;;38.15;36.25;;;;;;;20.38;45.44;101460.47;4978759;28;20498;-70
2023/05/01 02:29:03;;;;;;;37.95;36.15;;;;;;;20.37;45.31;101458.84;4995883;28;20030;-71
2023/05/01 02:31:29;;;;;;;39.38;37.38;;;;;;;20.35;45.08;101459.13;4996299;28;20027;-69
2023/05/01 02:33:55;;;;;;;41.63;39.42;;;;;;;20.34;45.00;101451.22;4995979;28;20027;-67
2023/05/01 02:36:21;;;;;;;41.00;38.90;;;;;;;20.32;45.14;101454.25;4996028;28;20034;-71
2023/05/01 02:38:49;;;;;;;37.58;35.63;;;;;;;20.31;44.92;101449.88;4978603;28;20030;-72
2023/05/01 02:41:15;;;;;;;;;;;;;;;20.27;45.11;101446.88;4996408;28;20042;-73
2023/05/01 02:43:42;;;;;;;37.50;35.70;;;;;;;20.25;44.92;101440.06;4996431;28;20013;-72
2023/05/01 02:46:09;;;;;;;40.33;37.97;;;;;;;20.22;44.74;101441.44;4995771;28;20113;-71
2023/05/01 02:48:37;;;;;;;37.25;35.35;;;;;;;20.22;45.08;101437.91;4995836;28;20081;-72
2023/05/01 02:51:03;;;;;;;38.65;36.38;;;;;;;20.20;45.02;101437.34;4996171;28;20026;-71
2023/05/01 02:53:29;;;;;;;36.33;34.53;;;;;;;20.19;44.79;101435.75;4978726;28;20122;-66
2023/05/01 02:55:55;;;;;;;41.20;38.92;;;;;;;20.18;44.81;101431.34;4995594;28;20045;-67
2023/05/01 02:58:21;;;;;;;38.13;36.22;;;;;;;20.15;45.28;101430.00;4978703;28;20229;-71
2023/05/01 03:00:48;;;;;;;38.22;36.33;;;;;;;20.13;44.78;101423.97;4995978;28;20471;-68
2023/05/01 03:03:14;;;;;;;39.53;37.53;;;;;;;20.11;44.88;101423.47;4995815;28;20030;-71
2023/05/01 03:05:40;;;;;;;38.53;36.60;;;;;;;20.10;45.35;101430.06;4995352;28;20450;-72
2023/05/01 03:08:06;;;;;;;37.10;35.10;;;;;;;20.09;44.85;101429.25;4995363;28;20085;-69
2023/05/01 03:10:32;;;;;;;37.30;35.30;;;;;;;20.08;44.90;101426.78;4995510;28;20038;-71
2023/05/01 03:12:58;;;;;;;39.45;37.40;;;;;;;20.06;45.23;101423.53;4994970;28;20367;-68
2023/05/01 03:15:23;;;;;;;37.25;35.35;;;;;;;20.04;45.36;101420.25;4995156;28;20053;-72
2023/05/01 03:17:49;;;;;;;38.60;36.58;;;;;;;20.03;45.06;101415.84;4995219;28;20045;-72
2023/05/01 03:20:14;;;;;;;38.35;36.17;;;;;;;20.00;44.94;101414.50;4995143;28;20436;-69
2023/05/01 03:22:40;;;;;;;36.80;34.95;;;;;;;20.00;45.49;101410.97;4995922;28;20042;-70
2023/05/01 03:25:06;;;;;;;38.35;36.35;;;;;;;19.97;45.12;101409.63;4995008;28;20117;-71
2023/05/01 03:27:31;;;;;;;36.67;34.78;;;;;;;19.96;45.21;101413.47;4995165;28;20426;-71
2023/05/01 03:29:57;;;;;;;37.55;35.47;;;;;;;19.94;45.09;101407.47;4977709;28;20038;-67
2023/05/01 03:32:22;;;;;;;36.45;34.50;;;;;;;19.94;45.33;101404.72;4995407;28;20046;-71
2023/05/01 03:34:48;;;;;;;39.28;37.25;;;;;;;19.92;45.22;101409.66;4977417;28;20455;-68
2023/05/01 03:37:14;;;;;;;38.08;36.17;;;;;;;19.91;45.25;101404.47;4994891;28;20486;-70
2023/05/01 03:39:40;;;;;;;35.88;33.97;;;;;;;19.88;45.19;101403.97;4995334;28;20055;-71
2023/05/01 03:42:06;;;;;;;37.90;35.90;;;;;;;19.88;45.04;101398.47;4994653;28;20506;-69
2023/05/01 03:44:31;;;;;;;36.05;34.15;;;;;;;19.85;45.31;101398.22;4994814;28;20077;-73
2023/05/01 03:46:57;;;;;;;38.35;36.25;;;;;;;19.84;45.20;101400.16;4994648;28;20121;-68
2023/05/01 03:49:22;;;;;;;35.72;33.75;;;;;;;19.82;44.98;101399.63;4994907;28;20118;-70
2023/05/01 03:51:48;;;;;;;35.80;34.00;;;;;;;19.81;45.29;101397.19;4994625;28;20034;-68
2023/05/01 03:54:13;;;;;;;37.20;35.33;;;;;;;19.79;45.15;101388.41;4994768;28;20042;-69
2023/05/01 03:56:39;;;;;;;36.10;34.20;;;;;;;19.78;45.45;101392.25;4994485;28;20064;-70
2023/05/01 03:59:05;;;;;;;37.35;35.35;;;;;;;19.75;44.98;101393.66;4994119;28;20040;-70
2023/05/01 04:01:32;;;;;;;36.15;34.35;;;;;;;19.75;45.18;101385.41;4994729;28;20037;-69
2023/05/01 04:03:58;;;;;;;36.72;34.78;;;;;;;19.73;45.20;101384.91;4994353;28;20077;-67
2023/05/01 04:06:24;;;;;;;38.25;36.28;;;;;;;19.72;45.08;101379.72;4976125;28;20062;-69
2023/05/01 04:08:49;;;;;;;36.58;34.60;;;;;;;19.69;45.20;101375.63;4994108;28;20463;-68
2023/05/01 04:11:14;;;;;;;35.55;33.65;;;;;;;19.69;45.01;101374.81;4994373;28;20526;-67
2023/05/01 04:13:40;;;;;;;36.17;34.17;;;;;;;19.67;45.16;101378.66;4976902;28;20088;-67
2023/05/01 04:16:06;;;;;;;38.03;35.80;;;;;;;19.65;45.05;101374.53;4976810;28;20461;-71
2023/05/01 04:18:31;;;;;;;35.33;33.42;;;;;;;19.63;45.10;101372.09;4994250;28;20038;-70
2023/05/01 04:20:56;;;;;;;36.85;34.83;;;;;;;19.63;45.10;101371.25;4994379;28;20121;-72
2023/05/01 04:23:22;;;;;;;35.78;33.88;;;;;;;19.62;45.00;101366.88;4976863;28;20031;-72
2023/05/01 04:25:47;;;;;;;36.33;34.40;;;;;;;19.61;45.43;101368.00;4994441;28;20121;-71
2023/05/01 04:28:13;;;;;;;36.60;34.60;;;;;;;19.58;44.98;101366.66;4994418;28;20407;-70
2023/05/01 04:30:38;;;;;;;35.75;33.75;;;;;;;19.57;45.15;101369.69;4994101;28;20385;-68
2023/05/01 04:33:10;;;;;;;36.50;34.47;;;;;;;19.55;44.85;101364.47;4993971;28;20037;-68
2023/05/01 04:35:39;;;;;;;36.63;34.33;;;;;;;19.53;45.21;101358.50;4994103;28;20045;-70
2023/05/01 04:38:05;;;;;;;39.75;37.53;;;;;;;19.51;45.02;101357.13;4994524;28;20038;-68
2023/05/01 04:40:31;;;;;;;36.75;34.92;;;;;;;19.50;45.25;101355.47;4994007;28;20088;-69
2023/05/01 04:42:56;;;;;;;35.20;33.38;;;;;;;19.48;44.92;101350.31;4977084;28;20433;-69
2023/05/01 04:45:22;;;;;;;35.45;33.58;;;;;;;19.47;45.04;101356.88;4993673;28;20375;-68
2023/05/01 04:47:47;;;;;;;35.40;33.58;;;;;;;19.45;45.14;101359.94;4977041;28;20038;-68
2023/05/01 04:50:13;;;;;;;36.92;34.92;;;;;;;19.44;45.42;101361.00;4993750;28;20046;-67
2023/05/01 04:52:38;;;;;;;37.65;35.38;;;;;;;19.43;45.12;101362.13;4993923;28;20113;-69
2023/05/01 04:55:04;;;;;;;37.50;35.50;;;;;;;19.41;45.30;101360.78;4976396;28;20030;-68
2023/05/01 04:57:30;;;;;;;36.40;34.58;;;;;;;19.40;45.41;101367.34;4994125;28;20031;-67
2023/05/01 04:59:55;;;;;;;36.53;34.63;;;;;;;19.39;45.46;101366.53;4994102;28;20127;-68
2023/05/01 05:02:20;;;;;;;38.00;36.00;;;;;;;19.36;45.46;101361.63;4993833;28;20034;-68
2023/05/01 05:04:46;;;;;;;35.75;33.85;;;;;;;19.34;45.44;101358.34;4976734;28;20397;-68
2023/05/01 05:07:11;;;;;;;38.85;36.85;;;;;;;19.33;44.99;101356.75;4993979;28;20042;-67
2023/05/01 05:09:37;;;;;;;35.47;33.50;;;;;;;19.32;44.98;101365.22;4994077;28;20027;-66
2023/05/01 05:12:03;;;;;;;37.33;35.25;;;;;;;19.30;45.37;101365.50;4993641;28;20030;-69
2023/05/01 05:14:29;;;;;;;36.08;34.25;;;;;;;19.29;45.10;101366.63;4993455;28;20037;-67
2023/05/01 05:16:55;;;;;;;37.42;35.10;;;;;;;19.29;45.25;101371.28;4994133;28;20047;-69
2023/05/01 05:19:20;;;;;;;33.80;32.08;;;;;;;19.27;45.36;101368.00;4997567;28;20173;-71
2023/05/01 05:21:45;;;;;;;36.85;34.67;;;;;;;19.25;44.74;101373.75;4997746;28;20105;-68
2023/05/01 05:24:11;;;;;;;36.75;34.75;;;;;;;19.24;45.57;101370.22;4997298;28;20034;-67
2023/05/01 05:26:37;;;;;;;35.58;33.67;;;;;;;19.23;44.98;101370.50;4997320;28;20113;-67
2023/05/01 05:29:02;;;;;;;36.65;34.60;;;;;;;19.21;45.55;101373.53;4997222;28;20030;-67
2023/05/01 05:31:28;;;;;;;35.67;33.72;;;;;;;19.20;45.51;101365.59;4997319;28;20093;-67
2023/05/01 05:33:53;;;;;;;36.92;34.90;;;;;;;19.18;45.18;101365.88;4997365;28;20034;-70
2023/05/01 05:36:19;;;;;;;38.75;36.70;;;;;;;19.17;45.35;101366.97;4996807;28;20089;-69
2023/05/01 05:38:44;;;;;;;36.28;34.38;;;;;;;19.15;45.54;101365.63;4979479;28;20035;-69
2023/05/01 05:41:10;;;;;;;35.67;33.67;;;;;;;19.13;45.24;101371.41;4997033;28;20454;-69
2023/05/01 05:43:36;;;;;;;36.10;33.95;;;;;;;19.13;45.43;101365.13;4979667;28;20062;-67
2023/05/01 05:46:01;;;;;;;36.65;34.75;;;;;;;19.14;45.27;101369.47;4997147;28;20038;-71
2023/05/01 05:48:27;;;;;;;35.83;33.92;;;;;;;19.11;45.09;101367.31;4979444;28;20036;-67
2023/05/01 05:50:52;;;;;;;38.08;36.03;;;;;;;19.11;45.11;101364.56;4997332;28;20081;-66
2023/05/01 05:53:20;;;;;;;36.20;33.97;;;;;;;19.08;45.30;101360.50;4996542;28;20030;-67
2023/05/01 05:55:46;;;;;;;34.30;32.50;;;;;;;19.07;45.30;101360.75;4997087;28;20049;-67
2023/05/01 05:58:13;;;;;;;36.13;34.13;;;;;;;19.06;45.24;101362.69;4996704;28;20037;-68
2023/05/01 06:00:40;;;;;;;35.25;33.35;;;;;;;19.05;45.28;101372.03;4996916;28;20421;-67
2023/05/01 06:03:06;;;;;;;36.58;34.47;;;;;;;19.06;45.06;101361.88;4996574;28;20145;-68
2023/05/01 06:05:32;;;;;;;36.60;34.35;;;;;;;19.03;45.53;101353.13;4996601;28;20035;-70
2023/05/01 06:07:57;;;;;;;35.13;33.22;;;;;;;19.03;45.08;101357.78;4979137;28;20041;-71
2023/05/01 06:10:22;;;;;;;36.35;33.95;;;;;;;19.02;45.15;101361.59;4979064;28;20035;-67
2023/05/01 06:12:48;;;;;;;37.08;34.83;;;;;;;19.01;45.34;101360.00;4978969;28;20038;-69
2023/05/01 06:15:15;;;;;;;37.75;35.50;;;;;;;19.01;44.98;101362.72;4996055;28;20054;-66
2023/05/01 06:17:42;;;;;;;36.13;34.10;;;;;;;19.00;45.03;101358.38;4996941;28;20057;-69
2023/05/01 06:20:08;;;;;;;35.65;33.67;;;;;;;18.99;45.36;101356.72;4996548;28;20035;-68
2023/05/01 06:22:33;;;;;;;33.58;31.77;;;;;;;18.98;45.51;101355.09;4996579;28;20088;-68
2023/05/01 06:24:59;;;;;;;35.75;33.55;;;;;;;18.96;45.49;101358.09;4996306;28;20043;-66
2023/05/01 06:27:25;;;;;;;33.53;31.65;;;;;;;18.95;44.99;101353.72;4996916;28;20454;-67
2023/05/01 06:29:50;;;;;;;36.38;34.28;;;;;;;18.93;45.22;101355.94;4995757;28;20109;-69
2023/05/01 06:32:16;;;;;;;34.97;32.97;;;;;;;18.93;45.53;101360.59;4978030;28;20042;-70
2023/05/01 06:34:41;;;;;;;35.53;33.40;;;;;;;18.92;45.61;101353.47;4996229;28;20382;-68
2023/05/01 06:37:07;;;;;;;36.47;34.45;;;;;;;18.92;45.07;101357.00;4995363;28;20045;-67
2023/05/01 06:39:32;;;;;;;37.03;34.92;;;;;;;18.91;45.59;101358.13;4978605;28;20085;-68
2023/05/01 06:41:58;;;;;;;35.72;33.53;;;;;;;18.90;45.27;101356.50;4995644;28;20084;-67
2023/05/01 06:44:23;;;;;;;36.70;34.60;;;;;;;18.89;45.28;101352.13;4995778;28;20038;-70
2023/05/01 06:46:49;;;;;;;36.08;34.08;;;;;;;18.89;45.22;101356.78;4995695;28;20374;-70
2023/05/01 06:49:14;;;;;;;36.92;34.72;;;;;;;18.89;45.67;101351.31;4995978;28;20023;-69
2023/05/01 06:51:39;;;;;;;36.30;34.38;;;;;;;18.87;45.74;101353.50;4995277;28;20383;-68
2023/05/01 06:54:05;;;;;;;34.00;32.17;;;;;;;18.86;45.63;101346.41;4995118;28;20030;-68
2023/05/01 06:56:31;;;;;;;36.15;33.88;;;;;;;18.86;45.43;101351.88;4995066;28;20115;-70
2023/05/01 06:58:57;;;;;;;33.75;31.90;;;;;;;18.85;45.36;101356.53;4995367;28;20034;-68
2023/05/01 07:01:22;;;;;;;36.65;34.42;;;;;;;18.85;45.78;101362.00;4995576;28;20046;-68
2023/05/01 07:03:47;;;;;;;35.78;33.65;;;;;;;18.84;45.29;101352.16;4995516;28;20034;-69
2023/05/01 07:06:13;;;;;;;36.45;34.20;;;;;;;18.85;45.47;101361.16;4995220;28;20038;-68
2023/05/01 07:08:38;;;;;;;39.10;36.80;;;;;;;18.85;45.71;101359.28;4978241;28;20381;-71
2023/05/01 07:11:04;;;;;;;36.80;34.80;;;;;;;18.86;45.35;101363.63;4978006;28;20439;-69
2023/05/01 07:13:29;;;;;;;35.80;33.60;;;;;;;18.85;45.38;101359.28;4995282;28;20030;-71
2023/05/01 07:15:54;;;;;;;36.22;34.00;;;;;;;18.85;45.45;101363.91;4994477;28;20501;-67
2023/05/01 07:18:20;;;;;;;36.10;33.95;;;;;;;18.85;45.79;101362.00;4994649;28;20034;-69
2023/05/01 07:20:46;;;;;;;35.03;32.90;;;;;;;18.85;45.81;101366.66;4994388;28;20041;-67
2023/05/01 07:23:11;;;;;;;35.65;33.70;;;;;;;18.84;45.65;101365.84;4994601;28;20080;-68
2023/05/01 07:25:37;;;;;;;35.97;33.75;;;;;;;18.85;45.84;101363.91;4994585;28;20042;-66
2023/05/01 07:28:04;;;;;;;34.80;32.90;;;;;;;18.85;45.94;101363.91;4994017;28;20046;-70
2023/05/01 07:30:29;;;;;;;36.45;34.28;;;;;;;18.86;45.58;101362.81;4976978;28;20058;-70
2023/05/01 07:32:56;;;;;;;34.72;32.83;;;;;;;18.86;45.70;101360.91;4994847;28;20111;-68
2023/05/01 07:35:22;;;;;;;36.08;33.97;;;;;;;18.85;45.52;101362.00;4994290;28;20066;-68
2023/05/01 07:37:50;;;;;;;36.03;34.00;;;;;;;18.86;45.65;101366.38;4994384;28;20034;-68
2023/05/01 07:40:16;;;;;;;36.35;34.20;;;;;;;18.87;45.63;101361.72;4993562;28;20033;-71
2023/05/01 07:42:41;;;;;;;38.70;36.42;;;;;;;18.88;45.48;101360.63;4994206;28;20110;-68
2023/05/01 07:45:07;;;;;;;38.40;35.97;;;;;;;18.88;45.57;101366.91;4994155;28;20037;-70
2023/05/01 07:47:33;;;;;;;37.00;34.90;;;;;;;18.89;46.02;101363.06;4993770;28;20336;-68
2023/05/01 07:49:59;;;;;;;36.00;33.92;;;;;;;18.90;45.54;101359.25;4976585;28;20104;-68
2023/05/01 07:52:25;;;;;;;36.75;34.53;;;;;;;18.89;45.83;101354.03;4993812;28;20117;-68
2023/05/01 07:54:51;;;;;;;35.53;33.30;;;;;;;18.92;45.92;101356.19;4960801;28;20242;-69
2023/05/01 07:57:16;;;;;;;38.42;35.78;;;;;;;18.92;45.45;101356.19;4993793;28;20394;-68
2023/05/01 07:59:42;;;;;;;36.92;34.50;;;;;;;18.93;46.01;101355.94;4993786;28;20042;-68
2023/05/01 08:02:07;;;;;;;34.65;32.53;;;;;;;18.93;46.09;101353.19;4994170;28;20093;-69
2023/05/01 08:04:32;;;;;;;36.47;34.38;;;;;;;18.95;45.85;101361.09;4993725;28;20451;-69
2023/05/01 08:06:58;;;;;;;36.33;34.35;;;;;;;18.94;45.75;101360.28;4993849;28;20030;-69
2023/05/01 08:09:23;;;;;;;36.85;34.75;;;;;;;18.96;46.19;101362.75;4994492;28;20409;-67
2023/05/01 08:11:49;;;;;;;35.22;33.20;;;;;;;18.97;46.12;101362.47;4993927;28;20455;-68
2023/05/01 08:14:16;;;;;;;36.00;33.75;;;;;;;18.99;46.07;101359.44;4993682;28;20113;-68
2023/05/01 08:16:42;;;;;;;37.20;35.05;;;;;;;18.99;45.89;101352.03;4993469;28;20054;-71
2023/05/01 08:19:07;;;;;;;34.97;32.97;;;;;;;19.01;45.99;101355.31;4993771;28;20030;-69
2023/05/01 08:21:33;;;;;;;39.30;36.90;;;;;;;19.02;46.16;101351.50;4993507;28;20034;-68
2023/05/01 08:23:58;;;;;;;35.17;33.28;;;;;;;19.05;46.22;101362.97;4993451;28;20030;-68
2023/05/01 08:26:23;;;;;;;36.13;34.03;;;;;;;19.06;45.99;101362.69;4976171;28;20039;-69
2023/05/01 08:28:49;;;;;;;37.85;35.42;;;;;;;19.08;45.90;101359.69;4975671;28;20463;-70
2023/05/01 08:31:15;;;;;;;37.25;34.65;;;;;;;19.08;46.12;101357.75;4993443;28;20031;-68
2023/05/01 08:33:41;;;;;;;36.42;34.33;;;;;;;19.10;45.86;101362.91;4975807;28;20366;-68
2023/05/01 08:36:09;;;;;;;35.80;33.83;;;;;;;19.11;46.41;101350.88;4994305;28;20089;-70
2023/05/01 08:38:35;;;;;;;37.72;35.58;;;;;;;19.12;46.02;101349.78;4993568;28;20082;-67
2023/05/01 08:41:02;;;;;;;35.95;34.00;;;;;;;19.15;46.19;101354.66;4994203;28;20034;-67
2023/05/01 08:43:30;;;;;;;38.53;36.13;;;;;;;19.16;46.04;101348.91;4993797;28;20447;-67
2023/05/01 08:45:57;;;;;;;33.38;31.33;;;;;;;19.18;46.06;101354.94;4993458;28;20065;-66
2023/05/01 08:48:24;;;;;;;35.33;33.33;;;;;;;19.20;46.26;101351.91;4993357;28;20145;-68
2023/05/01 08:50:53;;;;;;;36.13;33.90;;;;;;;19.22;46.42;101357.91;4992985;28;20034;-69
2023/05/01 08:53:21;;;;;;;37.85;35.72;;;;;;;19.23;46.36;101360.38;4996811;28;20035;-67
2023/05/01 08:55:49;;;;;;;35.28;33.28;;;;;;;19.26;46.28;101360.91;4996969;28;20034;-68
2023/05/01 08:58:17;;;;;;;36.72;34.78;;;;;;;19.28;46.60;101366.91;4997193;28;20065;-68
2023/05/01 09:00:43;;;;;;;39.30;36.70;;;;;;;19.29;46.65;101366.63;4979857;28;20045;-69
2023/05/01 09:03:12;;;;;;;36.65;34.35;;;;;;;19.32;46.22;101371.53;4996917;28;20114;-67
2023/05/01 09:05:37;;;;;;;37.75;35.17;;;;;;;19.34;46.36;101369.31;4997092;28;20085;-69
2023/05/01 09:08:03;;;;;;;35.05;32.95;;;;;;;19.38;46.39;101369.56;4997037;28;20034;-67
2023/05/01 09:10:29;;;;;;;36.70;34.65;;;;;;;19.40;46.25;101372.81;4996611;28;20031;-68
2023/05/01 09:12:59;;;;;;;36.67;34.58;;;;;;;19.41;46.42;101367.06;4997069;28;20466;-67
2023/05/01 09:15:26;;;;;;;37.03;34.72;;;;;;;19.44;46.57;101376.63;4996454;28;20046;-68
2023/05/01 09:17:52;;;;;;;36.25;34.35;;;;;;;19.47;46.04;101381.53;4997543;28;20030;-67
2023/05/01 09:20:18;;;;;;;37.20;35.10;;;;;;;19.49;45.98;101382.06;4996862;28;20038;-66
2023/05/01 09:22:44;;;;;;;36.90;34.75;;;;;;;19.52;46.24;101380.69;4979306;28;20089;-68
2023/05/01 09:25:09;;;;;;;35.50;33.50;;;;;;;19.54;46.12;101387.50;4979538;28;20042;-68
2023/05/01 09:27:36;;;;;;;37.63;35.40;;;;;;;19.56;46.23;101389.97;4996634;28;20038;-68
2023/05/01 09:30:05;;;;;;;36.97;35.00;;;;;;;19.57;46.61;101380.63;4979190;28;20616;-66
2023/05/01 09:32:30;;;;;;;38.72;36.50;;;;;;;19.59;46.80;101379.25;4979005;28;20442;-70
2023/05/01 09:35:10;;;;;;;38.03;36.00;;;;;;;19.61;46.62;101388.00;4996765;28;20096;-68
2023/05/01 09:37:36;;;;;;;40.17;37.78;;;;;;;19.63;46.70;101382.22;4996491;28;20037;-67
2023/05/01 09:40:10;;;;;;;37.35;35.08;;;;;;;19.63;46.66;101388.53;4996646;28;20379;-67
2023/05/01 09:42:37;;;;;;;40.70;38.30;;;;;;;19.67;46.76;101397.03;4996913;28;20030;-67
2023/05/01 09:45:05;;;;;;;37.92;35.88;;;;;;;19.70;46.56;101385.47;4996503;28;20082;-67
2023/05/01 09:47:33;;;;;;;38.45;36.25;;;;;;;19.72;46.99;101388.75;4996323;28;20037;-66
2023/05/01 09:49:59;;;;;;;36.83;34.83;;;;;;;19.74;47.03;101383.81;4996789;28;20035;-69
2023/05/01 09:52:28;;;;;;;40.05;37.50;;;;;;;19.77;46.77;101382.41;4978892;28;20085;-67
2023/05/01 09:55:17;;;;;;;39.45;37.15;;;;;;;19.77;46.45;101385.16;4996514;28;20026;-71
2023/05/01 09:57:45;;;;;;;39.22;36.92;;;;;;;19.78;46.91;101387.63;4995931;28;20176;-71
2023/05/01 10:00:13;;;;;;;39.88;37.58;;;;;;;19.80;46.92;101382.63;4996491;28;20030;-70
2023/05/01 10:02:40;;;;;;;39.63;36.88;;;;;;;19.83;46.74;101387.56;4996658;28;20087;-68
2023/05/01 10:05:06;;;;;;;41.13;38.17;;;;;;;19.85;46.81;101385.31;4995474;28;20122;-69
2023/05/01 10:07:32;;;;;;;39.72;37.45;;;;;;;19.89;46.55;101380.91;4996178;28;20500;-68
2023/05/01 10:09:57;;;;;;;39.85;37.45;;;;;;;19.92;46.35;101389.66;4996011;28;20065;-69
2023/05/01 10:12:32;;;;;;;39.85;37.05;;;;;;;19.95;46.40;101386.34;4978559;28;20049;-68
2023/05/01 10:14:57;;;;;;;40.10;37.33;;;;;;;19.97;46.42;101392.34;4996466;28;20379;-68
2023/05/01 10:17:23;;;;;;;41.28;38.97;;;;;;;19.99;46.46;101385.47;4996738;28;20042;-69
2023/05/01 10:19:50;;;;;;;41.50;38.67;;;;;;;20.02;46.45;101389.56;4995989;28;20046;-70
2023/05/01 10:22:16;;;;;;;39.25;37.10;;;;;;;20.04;46.92;101384.59;4995931;28;20110;-70
2023/05/01 10:24:45;;;;;;;40.67;38.00;;;;;;;20.07;46.74;101386.75;4994725;28;20085;-69
2023/05/01 10:27:11;;;;;;;40.60;38.20;;;;;;;20.09;46.73;101392.78;4995901;28;20120;-68
2023/05/01 10:29:38;;;;;;;44.17;41.47;;;;;;;20.12;46.82;101383.97;4995497;28;20042;-70
2023/05/01 10:32:08;;;;;;;39.08;36.65;;;;;;;20.16;46.30;101390.50;4995764;28;20026;-67
2023/05/01 10:34:38;;;;;;;44.72;41.80;;;;;;;20.19;46.70;101397.34;4995779;28;20030;-68
2023/05/01 10:37:28;;;;;;;39.17;37.08;;;;;;;20.22;46.70;101400.31;4995810;28;20026;-67
2023/05/01 10:39:54;;;;;;;40.45;38.15;;;;;;;20.24;46.80;101403.56;4995817;28;20455;-67
2023/05/01 10:42:19;;;;;;;41.45;38.80;;;;;;;20.27;46.92;101402.97;4978023;28;20026;-68
2023/05/01 10:44:46;;;;;;;40.20;37.88;;;;;;;20.31;46.86;101408.72;4995613;28;20030;-68
2023/05/01 10:47:24;;;;;;;39.13;36.85;;;;;;;20.34;46.83;101410.88;4995702;28;20032;-68
2023/05/01 10:50:07;;;;;;;40.10;37.90;;;;;;;20.36;46.90;101410.56;4994982;28;20049;-66
2023/05/01 10:53:14;;;;;;;43.40;40.42;;;;;;;20.38;46.22;101419.31;4995075;28;20382;-68
2023/05/01 10:55:48;;;;;;;38.70;36.63;;;;;;;20.38;46.99;101414.66;4995309;28;20034;-71
2023/05/01 10:58:35;;;;;;;41.28;38.80;;;;;;;20.43;46.79;101411.03;4977739;28;20534;-68
2023/05/01 11:01:35;;;;;;;41.17;38.88;;;;;;;20.47;47.07;101412.09;4995493;28;20072;-68
2023/05/01 11:04:07;;;;;;;42.72;39.95;;;;;;;20.48;46.95;101416.47;4994933;28;20474;-69
2023/05/01 11:06:34;;;;;;;42.83;40.22;;;;;;;20.53;47.06;101419.13;4995902;28;20127;-68
2023/05/01 11:09:00;;;;;;;41.95;39.50;;;;;;;20.58;47.20;101405.38;4995318;28;20105;-68
2023/05/01 11:11:26;;;;;;;40.15;37.92;;;;;;;20.63;47.10;101412.75;4994925;28;20027;-67